sensor_id;sensor_type;location;lat;lon;timestamp;P1;durP1;ratioP1;P2;durP2;ratioP2
40052;SDS011;25758;48.200;16.338;2024-01-10T00:02:19;59.50;;;24.43;;
40052;SDS011;25758;48.200;16.338;2024-01-10T00:04:45;65.27;;;23.97;;
40052;SDS011;25758;48.200;16.338;2024-01-10T00:07:10;48.57;;;21.80;;
40052;SDS011;25758;48.200;16.338;2024-01-10T00:09:36;54.73;;;24.30;;
40052;SDS011;25758;48.200;16.338;2024-01-10T00:12:02;57.27;;;24.77;;
40052;SDS011;25758;48.200;16.338;2024-01-10T00:14:28;59.03;;;23.77;;
40052;SDS011;25758;48.200;16.338;2024-01-10T00:16:53;60.60;;;26.60;;
40052;SDS011;25758;48.200;16.338;2024-01-10T00:19:19;49.93;;;22.00;;
40052;SDS011;25758;48.200;16.338;2024-01-10T00:21:45;53.60;;;23.33;;
40052;SDS011;25758;48.200;16.338;2024-01-10T00:24:10;58.90;;;23.60;;
40052;SDS011;25758;48.200;16.338;2024-01-10T00:26:36;62.40;;;25.50;;
40052;SDS011;25758;48.200;16.338;2024-01-10T00:29:01;65.43;;;24.20;;
40052;SDS011;25758;48.200;16.338;2024-01-10T00:31:27;58.03;;;24.97;;
40052;SDS011;25758;48.200;16.338;2024-01-10T00:33:53;58.17;;;23.03;;
40052;SDS011;25758;48.200;16.338;2024-01-10T00:36:18;58.53;;;23.70;;
40052;SDS011;25758;48.200;16.338;2024-01-10T00:38:44;56.23;;;23.33;;
40052;SDS011;25758;48.200;16.338;2024-01-10T00:41:10;53.03;;;23.03;;
40052;SDS011;25758;48.200;16.338;2024-01-10T00:43:37;61.77;;;25.20;;
40052;SDS011;25758;48.200;16.338;2024-01-10T00:46:03;57.50;;;24.20;;
40052;SDS011;25758;48.200;16.338;2024-01-10T00:48:28;58.03;;;25.47;;
40052;SDS011;25758;48.200;16.338;2024-01-10T00:50:54;54.63;;;24.07;;
40052;SDS011;25758;48.200;16.338;2024-01-10T00:53:20;54.37;;;24.03;;
40052;SDS011;25758;48.200;16.338;2024-01-10T00:55:47;60.77;;;25.67;;
40052;SDS011;25758;48.200;16.338;2024-01-10T00:58:15;60.93;;;26.13;;
40052;SDS011;25758;48.200;16.338;2024-01-10T01:00:41;62.00;;;25.47;;
40052;SDS011;25758;48.200;16.338;2024-01-10T01:03:08;62.97;;;27.27;;
40052;SDS011;25758;48.200;16.338;2024-01-10T01:05:35;62.83;;;25.87;;
40052;SDS011;25758;48.200;16.338;2024-01-10T01:08:20;67.40;;;26.93;;
40052;SDS011;25758;48.200;16.338;2024-01-10T01:10:46;58.00;;;25.53;;
40052;SDS011;25758;48.200;16.338;2024-01-10T01:13:12;59.07;;;25.70;;
40052;SDS011;25758;48.200;16.338;2024-01-10T01:18:24;64.20;;;25.80;;
40052;SDS011;25758;48.200;16.338;2024-01-10T01:20:50;60.40;;;26.10;;
40052;SDS011;25758;48.200;16.338;2024-01-10T01:23:16;61.53;;;25.77;;
40052;SDS011;25758;48.200;16.338;2024-01-10T01:25:42;64.30;;;25.67;;
40052;SDS011;25758;48.200;16.338;2024-01-10T01:28:08;57.57;;;26.60;;
40052;SDS011;25758;48.200;16.338;2024-01-10T01:30:33;63.23;;;25.73;;
40052;SDS011;25758;48.200;16.338;2024-01-10T01:32:59;56.07;;;25.03;;
40052;SDS011;25758;48.200;16.338;2024-01-10T01:35:25;71.53;;;27.20;;
40052;SDS011;25758;48.200;16.338;2024-01-10T01:37:51;68.23;;;26.53;;
40052;SDS011;25758;48.200;16.338;2024-01-10T01:40:17;76.53;;;28.07;;
40052;SDS011;25758;48.200;16.338;2024-01-10T01:45:56;71.40;;;27.80;;
40052;SDS011;25758;48.200;16.338;2024-01-10T01:48:23;61.53;;;25.63;;
40052;SDS011;25758;48.200;16.338;2024-01-10T01:50:56;61.97;;;27.63;;
40052;SDS011;25758;48.200;16.338;2024-01-10T01:53:25;66.37;;;25.27;;
40052;SDS011;25758;48.200;16.338;2024-01-10T01:55:54;66.47;;;28.43;;
40052;SDS011;25758;48.200;16.338;2024-01-10T01:58:22;63.60;;;24.53;;
40052;SDS011;25758;48.200;16.338;2024-01-10T02:00:48;68.47;;;26.47;;
40052;SDS011;25758;48.200;16.338;2024-01-10T02:03:14;66.90;;;28.03;;
40052;SDS011;25758;48.200;16.338;2024-01-10T02:05:40;75.93;;;29.63;;
40052;SDS011;25758;48.200;16.338;2024-01-10T02:08:08;63.07;;;27.03;;
40052;SDS011;25758;48.200;16.338;2024-01-10T02:10:34;61.80;;;28.87;;
40052;SDS011;25758;48.200;16.338;2024-01-10T02:13:00;68.37;;;29.57;;
40052;SDS011;25758;48.200;16.338;2024-01-10T02:15:26;73.37;;;28.27;;
40052;SDS011;25758;48.200;16.338;2024-01-10T02:17:51;67.53;;;27.80;;
40052;SDS011;25758;48.200;16.338;2024-01-10T02:20:17;69.40;;;27.17;;
40052;SDS011;25758;48.200;16.338;2024-01-10T02:22:43;66.27;;;28.47;;
40052;SDS011;25758;48.200;16.338;2024-01-10T02:25:09;71.37;;;31.17;;
40052;SDS011;25758;48.200;16.338;2024-01-10T02:27:36;65.57;;;27.57;;
40052;SDS011;25758;48.200;16.338;2024-01-10T02:30:03;84.47;;;30.60;;
40052;SDS011;25758;48.200;16.338;2024-01-10T02:32:29;70.27;;;28.70;;
40052;SDS011;25758;48.200;16.338;2024-01-10T02:34:55;78.97;;;30.27;;
40052;SDS011;25758;48.200;16.338;2024-01-10T02:37:21;61.40;;;27.23;;
40052;SDS011;25758;48.200;16.338;2024-01-10T02:39:47;63.70;;;26.60;;
40052;SDS011;25758;48.200;16.338;2024-01-10T02:42:12;72.83;;;29.20;;
40052;SDS011;25758;48.200;16.338;2024-01-10T02:44:38;67.23;;;27.97;;
40052;SDS011;25758;48.200;16.338;2024-01-10T02:47:04;69.53;;;27.43;;
40052;SDS011;25758;48.200;16.338;2024-01-10T02:49:30;64.17;;;27.03;;
40052;SDS011;25758;48.200;16.338;2024-01-10T02:51:55;67.07;;;27.03;;
40052;SDS011;25758;48.200;16.338;2024-01-10T02:54:21;74.03;;;28.27;;
40052;SDS011;25758;48.200;16.338;2024-01-10T02:56:47;67.33;;;27.00;;
40052;SDS011;25758;48.200;16.338;2024-01-10T02:59:13;64.27;;;30.03;;
40052;SDS011;25758;48.200;16.338;2024-01-10T03:01:38;69.13;;;29.97;;
40052;SDS011;25758;48.200;16.338;2024-01-10T03:04:04;66.97;;;29.20;;
40052;SDS011;25758;48.200;16.338;2024-01-10T03:06:30;86.10;;;29.87;;
40052;SDS011;25758;48.200;16.338;2024-01-10T03:08:56;78.93;;;30.90;;
40052;SDS011;25758;48.200;16.338;2024-01-10T03:11:22;72.87;;;30.07;;
40052;SDS011;25758;48.200;16.338;2024-01-10T03:13:47;68.57;;;30.10;;
40052;SDS011;25758;48.200;16.338;2024-01-10T03:16:25;71.77;;;28.60;;
40052;SDS011;25758;48.200;16.338;2024-01-10T03:18:51;72.57;;;29.03;;
40052;SDS011;25758;48.200;16.338;2024-01-10T03:21:17;70.00;;;28.70;;
40052;SDS011;25758;48.200;16.338;2024-01-10T03:26:34;70.93;;;29.23;;
40052;SDS011;25758;48.200;16.338;2024-01-10T03:29:00;70.87;;;29.17;;
40052;SDS011;25758;48.200;16.338;2024-01-10T03:31:27;83.10;;;31.33;;
40052;SDS011;25758;48.200;16.338;2024-01-10T03:33:55;71.80;;;28.13;;
40052;SDS011;25758;48.200;16.338;2024-01-10T03:36:21;68.60;;;30.57;;
40052;SDS011;25758;48.200;16.338;2024-01-10T03:38:47;62.33;;;27.47;;
40052;SDS011;25758;48.200;16.338;2024-01-10T03:41:13;75.10;;;29.63;;
40052;SDS011;25758;48.200;16.338;2024-01-10T03:43:43;71.53;;;29.30;;
40052;SDS011;25758;48.200;16.338;2024-01-10T03:46:09;66.07;;;29.97;;
40052;SDS011;25758;48.200;16.338;2024-01-10T03:48:35;68.20;;;27.60;;
40052;SDS011;25758;48.200;16.338;2024-01-10T03:51:02;79.50;;;30.50;;
40052;SDS011;25758;48.200;16.338;2024-01-10T03:53:28;81.83;;;32.50;;
40052;SDS011;25758;48.200;16.338;2024-01-10T03:55:54;85.57;;;31.73;;
40052;SDS011;25758;48.200;16.338;2024-01-10T03:58:20;71.13;;;31.57;;
40052;SDS011;25758;48.200;16.338;2024-01-10T04:00:45;70.23;;;31.30;;
40052;SDS011;25758;48.200;16.338;2024-01-10T04:03:11;67.53;;;30.33;;
40052;SDS011;25758;48.200;16.338;2024-01-10T04:05:37;70.73;;;30.90;;
40052;SDS011;25758;48.200;16.338;2024-01-10T04:08:03;67.70;;;30.53;;
40052;SDS011;25758;48.200;16.338;2024-01-10T04:10:29;65.83;;;30.40;;
40052;SDS011;25758;48.200;16.338;2024-01-10T04:12:55;67.47;;;30.87;;
40052;SDS011;25758;48.200;16.338;2024-01-10T04:15:20;78.03;;;30.87;;
40052;SDS011;25758;48.200;16.338;2024-01-10T04:17:46;72.83;;;30.27;;
40052;SDS011;25758;48.200;16.338;2024-01-10T04:20:12;72.90;;;30.33;;
40052;SDS011;25758;48.200;16.338;2024-01-10T04:22:38;71.63;;;29.93;;
40052;SDS011;25758;48.200;16.338;2024-01-10T04:25:05;74.20;;;30.00;;
40052;SDS011;25758;48.200;16.338;2024-01-10T04:27:32;77.73;;;31.77;;
40052;SDS011;25758;48.200;16.338;2024-01-10T04:29:58;68.00;;;29.40;;
40052;SDS011;25758;48.200;16.338;2024-01-10T04:32:23;74.33;;;31.07;;
40052;SDS011;25758;48.200;16.338;2024-01-10T04:34:49;77.27;;;31.80;;
40052;SDS011;25758;48.200;16.338;2024-01-10T04:37:16;76.00;;;30.57;;
40052;SDS011;25758;48.200;16.338;2024-01-10T04:39:41;72.17;;;31.63;;
40052;SDS011;25758;48.200;16.338;2024-01-10T04:42:10;73.90;;;30.70;;
40052;SDS011;25758;48.200;16.338;2024-01-10T04:44:38;72.63;;;32.40;;
40052;SDS011;25758;48.200;16.338;2024-01-10T04:47:16;69.07;;;29.33;;
40052;SDS011;25758;48.200;16.338;2024-01-10T04:49:42;69.73;;;29.17;;
40052;SDS011;25758;48.200;16.338;2024-01-10T04:52:08;70.47;;;28.83;;
40052;SDS011;25758;48.200;16.338;2024-01-10T04:54:33;73.77;;;29.20;;
40052;SDS011;25758;48.200;16.338;2024-01-10T04:56:59;68.90;;;28.10;;
40052;SDS011;25758;48.200;16.338;2024-01-10T04:59:25;68.63;;;26.80;;
40052;SDS011;25758;48.200;16.338;2024-01-10T05:01:51;71.13;;;26.63;;
40052;SDS011;25758;48.200;16.338;2024-01-10T05:04:17;64.93;;;28.53;;
40052;SDS011;25758;48.200;16.338;2024-01-10T05:06:42;79.10;;;29.53;;
40052;SDS011;25758;48.200;16.338;2024-01-10T05:09:08;69.03;;;27.80;;
40052;SDS011;25758;48.200;16.338;2024-01-10T05:11:35;74.97;;;29.50;;
40052;SDS011;25758;48.200;16.338;2024-01-10T05:14:01;59.80;;;26.43;;
40052;SDS011;25758;48.200;16.338;2024-01-10T05:16:27;77.40;;;27.50;;
40052;SDS011;25758;48.200;16.338;2024-01-10T05:18:53;68.30;;;27.80;;
40052;SDS011;25758;48.200;16.338;2024-01-10T05:21:19;76.87;;;28.13;;
40052;SDS011;25758;48.200;16.338;2024-01-10T05:23:45;74.87;;;28.83;;
40052;SDS011;25758;48.200;16.338;2024-01-10T05:26:11;69.83;;;27.27;;
40052;SDS011;25758;48.200;16.338;2024-01-10T05:28:37;70.40;;;28.10;;
40052;SDS011;25758;48.200;16.338;2024-01-10T05:31:03;68.97;;;27.60;;
40052;SDS011;25758;48.200;16.338;2024-01-10T05:33:29;73.23;;;28.50;;
40052;SDS011;25758;48.200;16.338;2024-01-10T05:35:55;71.53;;;29.20;;
40052;SDS011;25758;48.200;16.338;2024-01-10T05:38:21;79.93;;;28.47;;
40052;SDS011;25758;48.200;16.338;2024-01-10T05:40:46;66.57;;;26.47;;
40052;SDS011;25758;48.200;16.338;2024-01-10T05:43:12;62.63;;;26.90;;
40052;SDS011;25758;48.200;16.338;2024-01-10T05:45:38;60.80;;;27.27;;
40052;SDS011;25758;48.200;16.338;2024-01-10T05:48:04;67.83;;;26.37;;
40052;SDS011;25758;48.200;16.338;2024-01-10T05:50:31;67.17;;;27.97;;
40052;SDS011;25758;48.200;16.338;2024-01-10T05:52:57;68.73;;;25.80;;
40052;SDS011;25758;48.200;16.338;2024-01-10T05:55:22;63.13;;;25.73;;
40052;SDS011;25758;48.200;16.338;2024-01-10T05:57:48;62.87;;;27.03;;
40052;SDS011;25758;48.200;16.338;2024-01-10T06:00:15;61.93;;;26.60;;
40052;SDS011;25758;48.200;16.338;2024-01-10T06:02:41;78.33;;;29.87;;
40052;SDS011;25758;48.200;16.338;2024-01-10T06:05:08;74.47;;;29.93;;
40052;SDS011;25758;48.200;16.338;2024-01-10T06:07:34;71.07;;;28.63;;
40052;SDS011;25758;48.200;16.338;2024-01-10T06:10:00;73.53;;;28.10;;
40052;SDS011;25758;48.200;16.338;2024-01-10T06:12:29;67.80;;;28.73;;
40052;SDS011;25758;48.200;16.338;2024-01-10T06:14:55;73.23;;;29.73;;
40052;SDS011;25758;48.200;16.338;2024-01-10T06:17:20;69.27;;;28.77;;
40052;SDS011;25758;48.200;16.338;2024-01-10T06:19:46;70.33;;;27.97;;
40052;SDS011;25758;48.200;16.338;2024-01-10T06:22:12;60.20;;;27.27;;
40052;SDS011;25758;48.200;16.338;2024-01-10T06:24:38;74.00;;;29.80;;
40052;SDS011;25758;48.200;16.338;2024-01-10T06:27:06;64.67;;;27.33;;
40052;SDS011;25758;48.200;16.338;2024-01-10T06:29:31;77.10;;;26.80;;
40052;SDS011;25758;48.200;16.338;2024-01-10T06:31:58;69.33;;;28.93;;
40052;SDS011;25758;48.200;16.338;2024-01-10T06:34:26;80.43;;;30.17;;
40052;SDS011;25758;48.200;16.338;2024-01-10T06:36:51;74.23;;;27.73;;
40052;SDS011;25758;48.200;16.338;2024-01-10T06:39:17;63.83;;;28.17;;
40052;SDS011;25758;48.200;16.338;2024-01-10T06:41:45;70.73;;;28.63;;
40052;SDS011;25758;48.200;16.338;2024-01-10T06:44:13;59.53;;;26.33;;
40052;SDS011;25758;48.200;16.338;2024-01-10T06:46:38;73.77;;;28.67;;
40052;SDS011;25758;48.200;16.338;2024-01-10T06:49:04;71.67;;;28.17;;
40052;SDS011;25758;48.200;16.338;2024-01-10T06:51:29;71.00;;;28.07;;
40052;SDS011;25758;48.200;16.338;2024-01-10T06:53:56;75.13;;;28.00;;
40052;SDS011;25758;48.200;16.338;2024-01-10T06:56:28;68.73;;;28.13;;
40052;SDS011;25758;48.200;16.338;2024-01-10T06:58:57;63.07;;;27.50;;
40052;SDS011;25758;48.200;16.338;2024-01-10T07:01:24;69.93;;;28.13;;
40052;SDS011;25758;48.200;16.338;2024-01-10T07:03:49;63.40;;;27.23;;
40052;SDS011;25758;48.200;16.338;2024-01-10T07:06:16;65.27;;;27.07;;
40052;SDS011;25758;48.200;16.338;2024-01-10T07:08:42;66.50;;;28.37;;
40052;SDS011;25758;48.200;16.338;2024-01-10T07:11:09;69.23;;;28.30;;
40052;SDS011;25758;48.200;16.338;2024-01-10T07:13:36;70.10;;;29.77;;
40052;SDS011;25758;48.200;16.338;2024-01-10T07:16:02;65.07;;;28.20;;
40052;SDS011;25758;48.200;16.338;2024-01-10T07:18:28;61.60;;;27.13;;
40052;SDS011;25758;48.200;16.338;2024-01-10T07:20:54;68.03;;;27.97;;
40052;SDS011;25758;48.200;16.338;2024-01-10T07:23:20;65.77;;;28.03;;
40052;SDS011;25758;48.200;16.338;2024-01-10T07:25:45;62.33;;;26.53;;
40052;SDS011;25758;48.200;16.338;2024-01-10T07:28:11;61.63;;;27.13;;
40052;SDS011;25758;48.200;16.338;2024-01-10T07:30:37;67.33;;;28.30;;
40052;SDS011;25758;48.200;16.338;2024-01-10T07:33:02;71.13;;;26.47;;
40052;SDS011;25758;48.200;16.338;2024-01-10T07:35:28;67.37;;;26.97;;
40052;SDS011;25758;48.200;16.338;2024-01-10T07:37:55;66.70;;;26.13;;
40052;SDS011;25758;48.200;16.338;2024-01-10T07:40:20;65.23;;;27.47;;
40052;SDS011;25758;48.200;16.338;2024-01-10T07:42:47;65.60;;;25.83;;
40052;SDS011;25758;48.200;16.338;2024-01-10T07:45:13;76.50;;;27.60;;
40052;SDS011;25758;48.200;16.338;2024-01-10T07:47:39;61.80;;;27.37;;
40052;SDS011;25758;48.200;16.338;2024-01-10T07:52:32;71.23;;;26.50;;
40052;SDS011;25758;48.200;16.338;2024-01-10T07:54:58;67.03;;;26.60;;
40052;SDS011;25758;48.200;16.338;2024-01-10T07:57:24;70.07;;;27.27;;
40052;SDS011;25758;48.200;16.338;2024-01-10T07:59:50;63.53;;;27.23;;
40052;SDS011;25758;48.200;16.338;2024-01-10T08:02:15;60.27;;;26.53;;
40052;SDS011;25758;48.200;16.338;2024-01-10T08:04:41;56.37;;;24.73;;
40052;SDS011;25758;48.200;16.338;2024-01-10T08:07:07;58.93;;;26.07;;
40052;SDS011;25758;48.200;16.338;2024-01-10T08:09:33;81.17;;;27.77;;
40052;SDS011;25758;48.200;16.338;2024-01-10T08:11:59;59.27;;;25.30;;
40052;SDS011;25758;48.200;16.338;2024-01-10T08:14:25;65.57;;;27.20;;
40052;SDS011;25758;48.200;16.338;2024-01-10T08:16:51;68.77;;;25.63;;
40052;SDS011;25758;48.200;16.338;2024-01-10T08:19:19;54.83;;;22.37;;
40052;SDS011;25758;48.200;16.338;2024-01-10T08:21:45;77.30;;;26.07;;
40052;SDS011;25758;48.200;16.338;2024-01-10T08:24:10;62.57;;;26.60;;
40052;SDS011;25758;48.200;16.338;2024-01-10T08:26:36;66.73;;;26.87;;
40052;SDS011;25758;48.200;16.338;2024-01-10T08:29:03;71.80;;;29.10;;
40052;SDS011;25758;48.200;16.338;2024-01-10T08:31:29;70.47;;;27.30;;
40052;SDS011;25758;48.200;16.338;2024-01-10T08:33:54;63.10;;;27.23;;
40052;SDS011;25758;48.200;16.338;2024-01-10T08:36:22;61.33;;;24.50;;
40052;SDS011;25758;48.200;16.338;2024-01-10T08:38:49;66.13;;;28.77;;
40052;SDS011;25758;48.200;16.338;2024-01-10T08:41:15;60.13;;;27.20;;
40052;SDS011;25758;48.200;16.338;2024-01-10T08:43:41;64.10;;;26.27;;
40052;SDS011;25758;48.200;16.338;2024-01-10T08:46:08;64.50;;;23.27;;
40052;SDS011;25758;48.200;16.338;2024-01-10T08:48:34;40.00;;;18.50;;
40052;SDS011;25758;48.200;16.338;2024-01-10T08:51:01;44.53;;;22.23;;
40052;SDS011;25758;48.200;16.338;2024-01-10T08:53:27;81.77;;;30.03;;
40052;SDS011;25758;48.200;16.338;2024-01-10T08:55:53;69.40;;;27.43;;
40052;SDS011;25758;48.200;16.338;2024-01-10T08:58:19;64.33;;;27.20;;
40052;SDS011;25758;48.200;16.338;2024-01-10T09:00:45;70.23;;;27.53;;
40052;SDS011;25758;48.200;16.338;2024-01-10T09:03:11;64.30;;;23.80;;
40052;SDS011;25758;48.200;16.338;2024-01-10T09:05:37;66.87;;;27.40;;
40052;SDS011;25758;48.200;16.338;2024-01-10T09:08:04;65.70;;;28.17;;
40052;SDS011;25758;48.200;16.338;2024-01-10T09:10:29;79.30;;;29.67;;
40052;SDS011;25758;48.200;16.338;2024-01-10T09:12:55;79.27;;;30.50;;
40052;SDS011;25758;48.200;16.338;2024-01-10T09:15:23;68.07;;;28.77;;
40052;SDS011;25758;48.200;16.338;2024-01-10T09:17:50;68.50;;;30.40;;
40052;SDS011;25758;48.200;16.338;2024-01-10T09:20:17;60.17;;;27.03;;
40052;SDS011;25758;48.200;16.338;2024-01-10T09:22:43;60.53;;;26.83;;
40052;SDS011;25758;48.200;16.338;2024-01-10T09:25:09;69.53;;;29.30;;
40052;SDS011;25758;48.200;16.338;2024-01-10T09:27:38;69.10;;;28.03;;
40052;SDS011;25758;48.200;16.338;2024-01-10T09:30:06;65.97;;;26.87;;
40052;SDS011;25758;48.200;16.338;2024-01-10T09:32:35;74.20;;;30.10;;
40052;SDS011;25758;48.200;16.338;2024-01-10T09:35:01;61.50;;;26.47;;
40052;SDS011;25758;48.200;16.338;2024-01-10T09:37:27;51.87;;;16.43;;
40052;SDS011;25758;48.200;16.338;2024-01-10T09:39:52;69.20;;;27.07;;
40052;SDS011;25758;48.200;16.338;2024-01-10T09:42:20;65.67;;;28.87;;
40052;SDS011;25758;48.200;16.338;2024-01-10T09:44:50;70.40;;;27.23;;
40052;SDS011;25758;48.200;16.338;2024-01-10T09:47:16;63.97;;;25.30;;
40052;SDS011;25758;48.200;16.338;2024-01-10T09:49:44;56.40;;;22.80;;
40052;SDS011;25758;48.200;16.338;2024-01-10T09:52:11;69.87;;;27.77;;
40052;SDS011;25758;48.200;16.338;2024-01-10T09:54:48;61.10;;;26.00;;
40052;SDS011;25758;48.200;16.338;2024-01-10T09:57:22;60.40;;;22.33;;
40052;SDS011;25758;48.200;16.338;2024-01-10T09:59:51;60.03;;;26.87;;
40052;SDS011;25758;48.200;16.338;2024-01-10T10:02:20;67.53;;;28.53;;
40052;SDS011;25758;48.200;16.338;2024-01-10T10:04:58;65.70;;;27.70;;
40052;SDS011;25758;48.200;16.338;2024-01-10T10:07:31;69.47;;;25.38;;
40052;SDS011;25758;48.200;16.338;2024-01-10T10:10:11;52.53;;;24.20;;
40052;SDS011;25758;48.200;16.338;2024-01-10T10:12:44;54.67;;;23.60;;
40052;SDS011;25758;48.200;16.338;2024-01-10T10:15:14;56.97;;;22.67;;
40052;SDS011;25758;48.200;16.338;2024-01-10T10:17:45;69.47;;;27.63;;
40052;SDS011;25758;48.200;16.338;2024-01-10T10:20:24;93.67;;;39.50;;
40052;SDS011;25758;48.200;16.338;2024-01-10T10:25:36;68.60;;;29.20;;
40052;SDS011;25758;48.200;16.338;2024-01-10T10:28:04;56.53;;;24.30;;
40052;SDS011;25758;48.200;16.338;2024-01-10T10:30:30;51.33;;;22.30;;
40052;SDS011;25758;48.200;16.338;2024-01-10T10:32:57;62.97;;;25.70;;
40052;SDS011;25758;48.200;16.338;2024-01-10T10:38:12;51.00;;;22.83;;
40052;SDS011;25758;48.200;16.338;2024-01-10T10:40:37;55.07;;;25.17;;
40052;SDS011;25758;48.200;16.338;2024-01-10T10:43:04;56.97;;;23.40;;
40052;SDS011;25758;48.200;16.338;2024-01-10T10:48:57;66.07;;;25.77;;
40052;SDS011;25758;48.200;16.338;2024-01-10T10:54:33;48.50;;;20.93;;
40052;SDS011;25758;48.200;16.338;2024-01-10T10:57:01;59.13;;;24.70;;
40052;SDS011;25758;48.200;16.338;2024-01-10T11:06:20;52.50;;;24.07;;
40052;SDS011;25758;48.200;16.338;2024-01-10T11:12:20;55.13;;;24.27;;
40052;SDS011;25758;48.200;16.338;2024-01-10T13:59:29;28.93;;;15.63;;
40052;SDS011;25758;48.200;16.338;2024-01-10T14:01:57;29.53;;;14.70;;
40052;SDS011;25758;48.200;16.338;2024-01-10T14:04:25;32.87;;;15.43;;
40052;SDS011;25758;48.200;16.338;2024-01-10T14:06:51;29.37;;;15.50;;
40052;SDS011;25758;48.200;16.338;2024-01-10T14:09:17;30.80;;;14.73;;
40052;SDS011;25758;48.200;16.338;2024-01-10T14:11:45;31.13;;;15.43;;
40052;SDS011;25758;48.200;16.338;2024-01-10T14:14:13;29.73;;;15.37;;
40052;SDS011;25758;48.200;16.338;2024-01-10T14:16:39;36.07;;;16.70;;
40052;SDS011;25758;48.200;16.338;2024-01-10T14:19:06;36.40;;;16.40;;
40052;SDS011;25758;48.200;16.338;2024-01-10T14:21:32;29.83;;;14.77;;
40052;SDS011;25758;48.200;16.338;2024-01-10T14:23:58;33.23;;;15.27;;
40052;SDS011;25758;48.200;16.338;2024-01-10T14:26:24;34.73;;;16.00;;
40052;SDS011;25758;48.200;16.338;2024-01-10T14:28:51;31.33;;;15.93;;
40052;SDS011;25758;48.200;16.338;2024-01-10T14:31:20;31.70;;;15.30;;
40052;SDS011;25758;48.200;16.338;2024-01-10T14:33:46;28.47;;;15.10;;
40052;SDS011;25758;48.200;16.338;2024-01-10T14:36:12;34.23;;;16.97;;
40052;SDS011;25758;48.200;16.338;2024-01-10T14:38:38;31.90;;;16.20;;
40052;SDS011;25758;48.200;16.338;2024-01-10T14:41:04;31.70;;;14.97;;
40052;SDS011;25758;48.200;16.338;2024-01-10T14:43:31;31.13;;;13.77;;
40052;SDS011;25758;48.200;16.338;2024-01-10T14:45:57;32.37;;;15.47;;
40052;SDS011;25758;48.200;16.338;2024-01-10T14:48:23;28.10;;;14.73;;
40052;SDS011;25758;48.200;16.338;2024-01-10T14:50:49;30.53;;;15.47;;
40052;SDS011;25758;48.200;16.338;2024-01-10T14:53:14;29.57;;;13.80;;
40052;SDS011;25758;48.200;16.338;2024-01-10T14:55:40;29.67;;;15.80;;
40052;SDS011;25758;48.200;16.338;2024-01-10T14:58:06;26.97;;;13.97;;
40052;SDS011;25758;48.200;16.338;2024-01-10T15:00:32;27.90;;;14.23;;
40052;SDS011;25758;48.200;16.338;2024-01-10T15:02:57;35.00;;;16.77;;
40052;SDS011;25758;48.200;16.338;2024-01-10T15:05:23;34.87;;;15.97;;
40052;SDS011;25758;48.200;16.338;2024-01-10T15:07:50;33.30;;;15.57;;
40052;SDS011;25758;48.200;16.338;2024-01-10T15:10:16;28.83;;;14.70;;
40052;SDS011;25758;48.200;16.338;2024-01-10T15:12:42;32.10;;;14.27;;
40052;SDS011;25758;48.200;16.338;2024-01-10T15:15:08;31.80;;;15.00;;
40052;SDS011;25758;48.200;16.338;2024-01-10T15:17:34;35.97;;;15.50;;
40052;SDS011;25758;48.200;16.338;2024-01-10T15:20:00;35.93;;;16.50;;
40052;SDS011;25758;48.200;16.338;2024-01-10T15:22:25;28.33;;;14.10;;
40052;SDS011;25758;48.200;16.338;2024-01-10T15:24:52;31.03;;;14.77;;
40052;SDS011;25758;48.200;16.338;2024-01-10T15:27:17;28.47;;;14.50;;
40052;SDS011;25758;48.200;16.338;2024-01-10T15:29:43;32.77;;;16.50;;
40052;SDS011;25758;48.200;16.338;2024-01-10T15:32:09;36.23;;;16.40;;
40052;SDS011;25758;48.200;16.338;2024-01-10T15:34:35;34.47;;;16.10;;
40052;SDS011;25758;48.200;16.338;2024-01-10T15:37:00;34.30;;;17.40;;
40052;SDS011;25758;48.200;16.338;2024-01-10T15:39:26;37.67;;;17.87;;
40052;SDS011;25758;48.200;16.338;2024-01-10T15:41:52;38.73;;;17.77;;
40052;SDS011;25758;48.200;16.338;2024-01-10T15:44:18;40.03;;;17.70;;
40052;SDS011;25758;48.200;16.338;2024-01-10T15:46:44;32.10;;;16.10;;
40052;SDS011;25758;48.200;16.338;2024-01-10T15:49:13;38.37;;;17.77;;
40052;SDS011;25758;48.200;16.338;2024-01-10T15:51:39;33.97;;;17.47;;
40052;SDS011;25758;48.200;16.338;2024-01-10T15:54:05;36.47;;;18.03;;
40052;SDS011;25758;48.200;16.338;2024-01-10T15:56:31;33.30;;;16.70;;
40052;SDS011;25758;48.200;16.338;2024-01-10T15:58:58;35.87;;;17.40;;
40052;SDS011;25758;48.200;16.338;2024-01-10T16:01:24;34.20;;;18.23;;
40052;SDS011;25758;48.200;16.338;2024-01-10T16:03:49;40.67;;;18.70;;
40052;SDS011;25758;48.200;16.338;2024-01-10T16:06:15;35.13;;;16.37;;
40052;SDS011;25758;48.200;16.338;2024-01-10T16:08:42;38.10;;;18.43;;
40052;SDS011;25758;48.200;16.338;2024-01-10T16:11:08;57.80;;;26.83;;
40052;SDS011;25758;48.200;16.338;2024-01-10T16:13:34;71.67;;;32.57;;
40052;SDS011;25758;48.200;16.338;2024-01-10T16:16:00;48.93;;;19.60;;
40052;SDS011;25758;48.200;16.338;2024-01-10T16:18:29;58.37;;;24.53;;
40052;SDS011;25758;48.200;16.338;2024-01-10T16:20:55;36.87;;;17.73;;
40052;SDS011;25758;48.200;16.338;2024-01-10T16:23:20;34.80;;;16.23;;
40052;SDS011;25758;48.200;16.338;2024-01-10T16:25:46;33.43;;;16.23;;
40052;SDS011;25758;48.200;16.338;2024-01-10T16:28:12;41.97;;;17.90;;
40052;SDS011;25758;48.200;16.338;2024-01-10T16:30:38;33.37;;;16.37;;
40052;SDS011;25758;48.200;16.338;2024-01-10T16:33:03;33.67;;;16.57;;
40052;SDS011;25758;48.200;16.338;2024-01-10T16:35:30;34.03;;;16.23;;
40052;SDS011;25758;48.200;16.338;2024-01-10T16:37:55;32.67;;;14.33;;
40052;SDS011;25758;48.200;16.338;2024-01-10T16:40:21;30.70;;;16.27;;
40052;SDS011;25758;48.200;16.338;2024-01-10T16:42:47;33.13;;;15.83;;
40052;SDS011;25758;48.200;16.338;2024-01-10T16:45:13;32.33;;;15.60;;
40052;SDS011;25758;48.200;16.338;2024-01-10T16:47:38;31.57;;;14.73;;
40052;SDS011;25758;48.200;16.338;2024-01-10T16:50:05;30.93;;;15.23;;
40052;SDS011;25758;48.200;16.338;2024-01-10T16:52:31;33.43;;;14.97;;
40052;SDS011;25758;48.200;16.338;2024-01-10T16:54:56;30.13;;;15.40;;
40052;SDS011;25758;48.200;16.338;2024-01-10T16:57:22;36.40;;;16.70;;
40052;SDS011;25758;48.200;16.338;2024-01-10T16:59:48;29.83;;;15.23;;
40052;SDS011;25758;48.200;16.338;2024-01-10T17:02:14;33.67;;;15.53;;
40052;SDS011;25758;48.200;16.338;2024-01-10T17:04:40;32.47;;;15.53;;
40052;SDS011;25758;48.200;16.338;2024-01-10T17:07:05;32.07;;;15.27;;
40052;SDS011;25758;48.200;16.338;2024-01-10T17:09:31;34.43;;;15.50;;
40052;SDS011;25758;48.200;16.338;2024-01-10T17:11:58;27.97;;;15.17;;
40052;SDS011;25758;48.200;16.338;2024-01-10T17:14:24;31.10;;;14.60;;
40052;SDS011;25758;48.200;16.338;2024-01-10T17:16:50;29.33;;;15.50;;
40052;SDS011;25758;48.200;16.338;2024-01-10T17:19:16;34.23;;;16.00;;
40052;SDS011;25758;48.200;16.338;2024-01-10T17:21:41;30.77;;;15.67;;
40052;SDS011;25758;48.200;16.338;2024-01-10T17:24:07;34.33;;;15.37;;